Terminal Aerodrome Forecast
Issued by NWS

Home | Current Version | Previous Version | Graphics & Text | Print | Product List | Glossary On
Versions: 1 2 3 4 5 6 7 8 9 10 11 12 13 14 15 16
000
FTUS43 KICT 241700
TAFCNU
TAF
KCNU 241734Z 2418/2518 14008KT P6SM SCT030
      TEMPO 2418/2421 P6SM BKN030
     FM250300 13005KT P6SM SKC
     FM251200 16014KT P6SM SCT250
     FM251500 20015G20KT P6SM SCT250=

USA.gov is the U.S. government's official web portal to all federal, state and local government web resources and services.